sensor_id;sensor_type;location;lat;lon;timestamp;pressure;altitude;pressure_sealevel;temperature;humidity
74561;BME280;62979;55.720;37.606;2023-07-31T00:02:00;98965.50;;;19.77;52.99
74561;BME280;62979;55.720;37.606;2023-07-31T00:04:27;98951.44;;;19.64;53.14
74561;BME280;62979;55.720;37.606;2023-07-31T00:06:54;98971.16;;;19.73;53.39
74561;BME280;62979;55.720;37.606;2023-07-31T00:09:25;98964.31;;;19.57;53.07
74561;BME280;62979;55.720;37.606;2023-07-31T00:11:52;98969.38;;;19.60;53.99
74561;BME280;62979;55.720;37.606;2023-07-31T00:14:19;98963.31;;;19.71;54.76
74561;BME280;62979;55.720;37.606;2023-07-31T00:16:45;98962.66;;;19.80;53.23
74561;BME280;62979;55.720;37.606;2023-07-31T00:19:12;98958.88;;;19.72;53.14
74561;BME280;62979;55.720;37.606;2023-07-31T00:21:39;98964.06;;;19.73;53.35
74561;BME280;62979;55.720;37.606;2023-07-31T00:24:06;98972.44;;;19.67;53.16
74561;BME280;62979;55.720;37.606;2023-07-31T00:26:34;98962.38;;;19.59;53.34
74561;BME280;62979;55.720;37.606;2023-07-31T00:29:01;98964.19;;;19.59;53.65
74561;BME280;62979;55.720;37.606;2023-07-31T00:31:28;98972.78;;;19.62;54.45
74561;BME280;62979;55.720;37.606;2023-07-31T00:33:55;98963.56;;;19.68;53.69
74561;BME280;62979;55.720;37.606;2023-07-31T00:36:22;98969.91;;;19.65;53.68
74561;BME280;62979;55.720;37.606;2023-07-31T00:38:49;98965.53;;;19.64;53.43
74561;BME280;62979;55.720;37.606;2023-07-31T00:41:16;98966.72;;;19.60;53.47
74561;BME280;62979;55.720;37.606;2023-07-31T00:43:44;98962.97;;;19.52;54.16
74561;BME280;62979;55.720;37.606;2023-07-31T00:46:11;98967.41;;;19.51;53.94
74561;BME280;62979;55.720;37.606;2023-07-31T00:48:39;98963.72;;;19.41;54.02
74561;BME280;62979;55.720;37.606;2023-07-31T00:51:07;98963.00;;;19.39;54.15
74561;BME280;62979;55.720;37.606;2023-07-31T00:53:34;98964.31;;;19.20;54.65
74561;BME280;62979;55.720;37.606;2023-07-31T00:56:03;98958.78;;;19.23;54.65
74561;BME280;62979;55.720;37.606;2023-07-31T00:58:30;98956.84;;;19.38;54.63
74561;BME280;62979;55.720;37.606;2023-07-31T01:00:59;98962.38;;;19.35;54.19
74561;BME280;62979;55.720;37.606;2023-07-31T01:03:26;98953.28;;;19.27;54.27
74561;BME280;62979;55.720;37.606;2023-07-31T01:06:05;98960.50;;;19.24;54.03
74561;BME280;62979;55.720;37.606;2023-07-31T01:08:44;98965.50;;;19.16;54.74
74561;BME280;62979;55.720;37.606;2023-07-31T01:11:22;98958.94;;;19.22;55.08
74561;BME280;62979;55.720;37.606;2023-07-31T01:13:54;98966.66;;;19.25;54.79
74561;BME280;62979;55.720;37.606;2023-07-31T01:16:24;98960.19;;;19.16;54.37
74561;BME280;62979;55.720;37.606;2023-07-31T01:18:51;98959.91;;;19.08;54.51
74561;BME280;62979;55.720;37.606;2023-07-31T01:21:31;98958.97;;;18.96;54.73
74561;BME280;62979;55.720;37.606;2023-07-31T01:24:21;98959.06;;;19.08;55.24
74561;BME280;62979;55.720;37.606;2023-07-31T01:26:56;98965.44;;;19.05;54.62
74561;BME280;62979;55.720;37.606;2023-07-31T01:29:34;98966.28;;;19.06;54.95
74561;BME280;62979;55.720;37.606;2023-07-31T01:32:06;98955.69;;;18.93;55.21
74561;BME280;62979;55.720;37.606;2023-07-31T01:34:35;98959.41;;;18.90;55.15
74561;BME280;62979;55.720;37.606;2023-07-31T01:37:03;98974.25;;;18.93;55.04
74561;BME280;62979;55.720;37.606;2023-07-31T01:39:31;98961.00;;;18.93;55.62
74561;BME280;62979;55.720;37.606;2023-07-31T01:41:59;98970.97;;;19.02;55.48
74561;BME280;62979;55.720;37.606;2023-07-31T01:44:27;98968.81;;;19.07;55.65
74561;BME280;62979;55.720;37.606;2023-07-31T01:46:53;98965.66;;;19.02;55.10
74561;BME280;62979;55.720;37.606;2023-07-31T01:49:20;98967.56;;;19.00;55.81
74561;BME280;62979;55.720;37.606;2023-07-31T01:51:47;98958.03;;;18.97;55.25
74561;BME280;62979;55.720;37.606;2023-07-31T01:54:14;98955.25;;;18.99;55.09
74561;BME280;62979;55.720;37.606;2023-07-31T01:56:41;98967.97;;;18.94;55.18
74561;BME280;62979;55.720;37.606;2023-07-31T01:59:09;98965.19;;;19.08;55.52
74561;BME280;62979;55.720;37.606;2023-07-31T02:01:36;98965.19;;;19.08;55.23
74561;BME280;62979;55.720;37.606;2023-07-31T02:04:03;98963.19;;;18.99;55.37
74561;BME280;62979;55.720;37.606;2023-07-31T02:06:30;98964.25;;;18.96;55.78
74561;BME280;62979;55.720;37.606;2023-07-31T02:08:57;98963.97;;;18.88;55.67
74561;BME280;62979;55.720;37.606;2023-07-31T02:11:24;98964.81;;;18.89;55.96
74561;BME280;62979;55.720;37.606;2023-07-31T02:13:50;98962.91;;;18.91;55.83
74561;BME280;62979;55.720;37.606;2023-07-31T02:16:19;98964.59;;;18.92;56.33
74561;BME280;62979;55.720;37.606;2023-07-31T02:18:45;98969.03;;;19.04;56.46
74561;BME280;62979;55.720;37.606;2023-07-31T02:21:12;98965.09;;;19.10;55.76
74561;BME280;62979;55.720;37.606;2023-07-31T02:23:39;98970.38;;;19.22;55.33
74561;BME280;62979;55.720;37.606;2023-07-31T02:26:06;98969.53;;;19.22;55.46
74561;BME280;62979;55.720;37.606;2023-07-31T02:28:33;98976.84;;;19.18;55.17
74561;BME280;62979;55.720;37.606;2023-07-31T02:31:00;98962.66;;;19.19;54.94
74561;BME280;62979;55.720;37.606;2023-07-31T02:33:28;98969.84;;;19.17;55.05
74561;BME280;62979;55.720;37.606;2023-07-31T02:35:55;98966.97;;;19.20;55.23
74561;BME280;62979;55.720;37.606;2023-07-31T02:38:22;98964.75;;;19.27;55.64
74561;BME280;62979;55.720;37.606;2023-07-31T02:40:49;98964.78;;;19.38;55.88
74561;BME280;62979;55.720;37.606;2023-07-31T02:43:16;98968.19;;;19.40;54.46
74561;BME280;62979;55.720;37.606;2023-07-31T02:45:43;98965.81;;;19.24;54.77
74561;BME280;62979;55.720;37.606;2023-07-31T02:48:10;98970.09;;;19.14;55.07
74561;BME280;62979;55.720;37.606;2023-07-31T02:50:38;98958.22;;;19.07;55.08
74561;BME280;62979;55.720;37.606;2023-07-31T02:53:04;98966.78;;;19.11;55.44
74561;BME280;62979;55.720;37.606;2023-07-31T02:55:31;98972.81;;;19.13;55.43
74561;BME280;62979;55.720;37.606;2023-07-31T02:57:58;98964.13;;;19.11;55.09
74561;BME280;62979;55.720;37.606;2023-07-31T03:00:25;98973.91;;;19.10;55.35
74561;BME280;62979;55.720;37.606;2023-07-31T03:02:52;98974.97;;;19.08;55.36
74561;BME280;62979;55.720;37.606;2023-07-31T03:05:19;98975.19;;;19.05;55.42
74561;BME280;62979;55.720;37.606;2023-07-31T03:07:47;98972.09;;;19.11;55.70
74561;BME280;62979;55.720;37.606;2023-07-31T03:10:14;98971.03;;;19.13;55.14
74561;BME280;62979;55.720;37.606;2023-07-31T03:12:41;98970.78;;;19.29;55.12
74561;BME280;62979;55.720;37.606;2023-07-31T03:15:09;98965.75;;;19.37;55.16
74561;BME280;62979;55.720;37.606;2023-07-31T03:17:36;98968.09;;;19.42;54.55
74561;BME280;62979;55.720;37.606;2023-07-31T03:20:03;98952.41;;;19.39;54.72
74561;BME280;62979;55.720;37.606;2023-07-31T03:22:31;98959.63;;;19.37;54.45
74561;BME280;62979;55.720;37.606;2023-07-31T03:24:59;98960.63;;;19.47;55.11
74561;BME280;62979;55.720;37.606;2023-07-31T03:27:26;98962.53;;;19.45;54.30
74561;BME280;62979;55.720;37.606;2023-07-31T03:29:53;98955.09;;;19.50;54.79
74561;BME280;62979;55.720;37.606;2023-07-31T03:32:20;98964.16;;;19.72;54.78
74561;BME280;62979;55.720;37.606;2023-07-31T03:34:47;98959.19;;;19.91;54.24
74561;BME280;62979;55.720;37.606;2023-07-31T03:37:14;98962.00;;;20.01;53.98
74561;BME280;62979;55.720;37.606;2023-07-31T03:39:40;98953.19;;;20.00;54.00
74561;BME280;62979;55.720;37.606;2023-07-31T03:42:09;98956.59;;;20.14;52.68
74561;BME280;62979;55.720;37.606;2023-07-31T03:44:35;98960.91;;;20.03;52.68
74561;BME280;62979;55.720;37.606;2023-07-31T03:47:03;98954.50;;;19.95;52.72
74561;BME280;62979;55.720;37.606;2023-07-31T03:49:30;98951.00;;;19.94;53.19
74561;BME280;62979;55.720;37.606;2023-07-31T03:51:57;98952.19;;;19.90;52.89
74561;BME280;62979;55.720;37.606;2023-07-31T03:54:24;98960.19;;;20.01;53.79
74561;BME280;62979;55.720;37.606;2023-07-31T03:56:51;98955.03;;;20.11;52.64
74561;BME280;62979;55.720;37.606;2023-07-31T03:59:19;98954.28;;;20.09;52.69
74561;BME280;62979;55.720;37.606;2023-07-31T04:01:46;98961.41;;;20.08;52.47
74561;BME280;62979;55.720;37.606;2023-07-31T04:04:12;98957.81;;;20.09;52.53
74561;BME280;62979;55.720;37.606;2023-07-31T04:06:39;98963.72;;;20.13;52.63
74561;BME280;62979;55.720;37.606;2023-07-31T04:09:06;98959.03;;;20.17;52.98
74561;BME280;62979;55.720;37.606;2023-07-31T04:11:33;98962.06;;;20.23;52.64
74561;BME280;62979;55.720;37.606;2023-07-31T04:14:00;98966.56;;;20.34;52.33
74561;BME280;62979;55.720;37.606;2023-07-31T04:16:28;98968.88;;;20.39;52.33
74561;BME280;62979;55.720;37.606;2023-07-31T04:18:55;98970.94;;;20.46;53.93
74561;BME280;62979;55.720;37.606;2023-07-31T04:21:22;98971.28;;;20.53;51.69
74561;BME280;62979;55.720;37.606;2023-07-31T04:23:49;98970.25;;;20.56;51.74
74561;BME280;62979;55.720;37.606;2023-07-31T04:26:16;98972.38;;;20.50;51.74
74561;BME280;62979;55.720;37.606;2023-07-31T04:28:43;98971.19;;;20.55;52.37
74561;BME280;62979;55.720;37.606;2023-07-31T04:31:09;98977.84;;;20.60;52.35
74561;BME280;62979;55.720;37.606;2023-07-31T04:33:38;98982.59;;;20.68;52.20
74561;BME280;62979;55.720;37.606;2023-07-31T04:36:05;98985.50;;;20.76;52.08
74561;BME280;62979;55.720;37.606;2023-07-31T04:38:32;98985.47;;;20.65;51.10
74561;BME280;62979;55.720;37.606;2023-07-31T04:40:58;98987.19;;;20.66;51.32
74561;BME280;62979;55.720;37.606;2023-07-31T04:43:25;98986.81;;;20.70;51.50
74561;BME280;62979;55.720;37.606;2023-07-31T04:45:52;98992.25;;;20.91;52.81
74561;BME280;62979;55.720;37.606;2023-07-31T04:48:19;98982.38;;;21.05;51.27
74561;BME280;62979;55.720;37.606;2023-07-31T04:50:47;98984.41;;;21.01;50.49
74561;BME280;62979;55.720;37.606;2023-07-31T04:53:14;98986.69;;;21.06;50.74
74561;BME280;62979;55.720;37.606;2023-07-31T04:55:41;98990.56;;;21.02;50.04
74561;BME280;62979;55.720;37.606;2023-07-31T04:58:08;98990.69;;;21.00;51.38
74561;BME280;62979;55.720;37.606;2023-07-31T05:00:35;98996.84;;;21.01;50.77
74561;BME280;62979;55.720;37.606;2023-07-31T05:03:02;98992.66;;;21.09;50.00
74561;BME280;62979;55.720;37.606;2023-07-31T05:05:29;98991.88;;;21.19;50.50
74561;BME280;62979;55.720;37.606;2023-07-31T05:07:57;98992.34;;;21.35;50.70
74561;BME280;62979;55.720;37.606;2023-07-31T05:10:24;98995.28;;;21.43;50.53
74561;BME280;62979;55.720;37.606;2023-07-31T05:12:51;98978.72;;;21.51;50.49
74561;BME280;62979;55.720;37.606;2023-07-31T05:15:17;98987.84;;;21.58;49.11
74561;BME280;62979;55.720;37.606;2023-07-31T05:17:44;98994.16;;;21.68;49.77
74561;BME280;62979;55.720;37.606;2023-07-31T05:20:12;98984.09;;;21.72;49.76
74561;BME280;62979;55.720;37.606;2023-07-31T05:22:40;98990.38;;;21.71;48.61
74561;BME280;62979;55.720;37.606;2023-07-31T05:25:08;98983.72;;;21.65;49.15
74561;BME280;62979;55.720;37.606;2023-07-31T05:27:35;98989.44;;;21.61;48.94
74561;BME280;62979;55.720;37.606;2023-07-31T05:30:02;98979.38;;;21.64;48.89
74561;BME280;62979;55.720;37.606;2023-07-31T05:32:30;98985.88;;;21.83;50.45
74561;BME280;62979;55.720;37.606;2023-07-31T05:34:57;98983.16;;;21.94;49.38
74561;BME280;62979;55.720;37.606;2023-07-31T05:37:24;98984.78;;;22.06;49.99
74561;BME280;62979;55.720;37.606;2023-07-31T05:39:51;98975.06;;;22.16;49.27
74561;BME280;62979;55.720;37.606;2023-07-31T05:42:19;98986.22;;;22.21;48.06
74561;BME280;62979;55.720;37.606;2023-07-31T05:44:46;98987.63;;;22.26;47.59
74561;BME280;62979;55.720;37.606;2023-07-31T05:47:13;98986.91;;;22.23;45.86
74561;BME280;62979;55.720;37.606;2023-07-31T05:49:40;98988.25;;;22.29;47.74
74561;BME280;62979;55.720;37.606;2023-07-31T05:52:07;98998.03;;;22.29;47.38
74561;BME280;62979;55.720;37.606;2023-07-31T05:54:34;99002.59;;;22.38;47.73
74561;BME280;62979;55.720;37.606;2023-07-31T05:57:01;99001.38;;;22.42;47.03
74561;BME280;62979;55.720;37.606;2023-07-31T05:59:29;99006.16;;;22.48;45.92
74561;BME280;62979;55.720;37.606;2023-07-31T06:01:58;98992.78;;;22.38;45.34
74561;BME280;62979;55.720;37.606;2023-07-31T06:04:26;98999.91;;;22.38;44.28
74561;BME280;62979;55.720;37.606;2023-07-31T06:06:53;98995.44;;;22.38;44.67
74561;BME280;62979;55.720;37.606;2023-07-31T06:09:20;98985.88;;;22.36;44.13
74561;BME280;62979;55.720;37.606;2023-07-31T06:11:47;98992.06;;;22.36;43.94
74561;BME280;62979;55.720;37.606;2023-07-31T06:14:14;98990.09;;;22.38;44.38
74561;BME280;62979;55.720;37.606;2023-07-31T06:16:44;98992.91;;;22.37;44.04
74561;BME280;62979;55.720;37.606;2023-07-31T06:19:11;98993.69;;;22.49;44.08
74561;BME280;62979;55.720;37.606;2023-07-31T06:21:38;98998.38;;;22.56;44.41
74561;BME280;62979;55.720;37.606;2023-07-31T06:24:07;98994.31;;;22.62;42.78
74561;BME280;62979;55.720;37.606;2023-07-31T06:26:34;98989.13;;;22.60;43.03
74561;BME280;62979;55.720;37.606;2023-07-31T06:29:01;98988.94;;;22.73;44.63
74561;BME280;62979;55.720;37.606;2023-07-31T06:31:28;98991.59;;;22.73;42.44
74561;BME280;62979;55.720;37.606;2023-07-31T06:33:56;98987.81;;;22.76;42.61
74561;BME280;62979;55.720;37.606;2023-07-31T06:36:23;98993.91;;;22.88;42.84
74561;BME280;62979;55.720;37.606;2023-07-31T06:38:50;99001.66;;;22.91;42.70
74561;BME280;62979;55.720;37.606;2023-07-31T06:41:17;99002.75;;;22.88;42.32
74561;BME280;62979;55.720;37.606;2023-07-31T06:43:44;99003.31;;;22.92;41.77
74561;BME280;62979;55.720;37.606;2023-07-31T06:46:11;99000.53;;;22.93;42.16
74561;BME280;62979;55.720;37.606;2023-07-31T06:48:38;99007.50;;;23.05;43.27
74561;BME280;62979;55.720;37.606;2023-07-31T06:51:07;99010.19;;;23.15;42.32
74561;BME280;62979;55.720;37.606;2023-07-31T06:53:33;99012.03;;;23.15;41.59
74561;BME280;62979;55.720;37.606;2023-07-31T06:56:00;99008.81;;;23.21;42.19
74561;BME280;62979;55.720;37.606;2023-07-31T06:58:27;99007.00;;;23.31;42.81
74561;BME280;62979;55.720;37.606;2023-07-31T07:00:54;99004.94;;;23.35;40.38
74561;BME280;62979;55.720;37.606;2023-07-31T07:03:21;99009.56;;;23.33;40.35
74561;BME280;62979;55.720;37.606;2023-07-31T07:05:48;99011.38;;;23.32;39.59
74561;BME280;62979;55.720;37.606;2023-07-31T07:08:16;99001.97;;;23.28;38.60
74561;BME280;62979;55.720;37.606;2023-07-31T07:10:43;99004.63;;;23.28;38.04
74561;BME280;62979;55.720;37.606;2023-07-31T07:13:10;99007.28;;;23.28;38.51
74561;BME280;62979;55.720;37.606;2023-07-31T07:15:37;99016.44;;;23.35;38.67
74561;BME280;62979;55.720;37.606;2023-07-31T07:18:04;99008.06;;;23.49;39.34
74561;BME280;62979;55.720;37.606;2023-07-31T07:20:31;99006.09;;;23.52;37.80
74561;BME280;62979;55.720;37.606;2023-07-31T07:22:58;99006.38;;;23.48;37.26
74561;BME280;62979;55.720;37.606;2023-07-31T07:25:27;98998.94;;;23.52;37.02
74561;BME280;62979;55.720;37.606;2023-07-31T07:27:54;99003.88;;;23.57;36.73
74561;BME280;62979;55.720;37.606;2023-07-31T07:30:21;99006.97;;;23.71;36.40
74561;BME280;62979;55.720;37.606;2023-07-31T07:32:49;99004.72;;;23.67;35.36
74561;BME280;62979;55.720;37.606;2023-07-31T07:35:16;99011.09;;;23.76;35.74
74561;BME280;62979;55.720;37.606;2023-07-31T07:37:43;99007.59;;;23.85;36.78
74561;BME280;62979;55.720;37.606;2023-07-31T07:40:10;99012.69;;;23.98;37.99
74561;BME280;62979;55.720;37.606;2023-07-31T07:42:38;99005.09;;;24.03;36.62
74561;BME280;62979;55.720;37.606;2023-07-31T07:45:06;99010.13;;;24.06;37.02
74561;BME280;62979;55.720;37.606;2023-07-31T07:47:34;99005.09;;;24.12;36.40
74561;BME280;62979;55.720;37.606;2023-07-31T07:50:01;98997.63;;;24.16;36.63
74561;BME280;62979;55.720;37.606;2023-07-31T07:52:28;99007.03;;;24.20;36.51
74561;BME280;62979;55.720;37.606;2023-07-31T07:54:55;99012.09;;;24.23;36.93
74561;BME280;62979;55.720;37.606;2023-07-31T07:57:22;99008.16;;;24.27;36.32
74561;BME280;62979;55.720;37.606;2023-07-31T07:59:50;99006.19;;;24.39;37.14
74561;BME280;62979;55.720;37.606;2023-07-31T08:02:17;99002.84;;;24.47;36.81
74561;BME280;62979;55.720;37.606;2023-07-31T08:04:43;99009.28;;;24.64;38.60
74561;BME280;62979;55.720;37.606;2023-07-31T08:07:10;99017.28;;;24.64;35.73
74561;BME280;62979;55.720;37.606;2023-07-31T08:09:38;99012.38;;;24.59;35.71
74561;BME280;62979;55.720;37.606;2023-07-31T08:12:06;99009.53;;;24.80;36.76
74561;BME280;62979;55.720;37.606;2023-07-31T08:14:33;99017.94;;;24.85;36.09
74561;BME280;62979;55.720;37.606;2023-07-31T08:17:02;99010.91;;;24.84;36.08
74561;BME280;62979;55.720;37.606;2023-07-31T08:19:29;99013.28;;;24.87;36.11
74561;BME280;62979;55.720;37.606;2023-07-31T08:21:56;99004.94;;;25.00;36.13
74561;BME280;62979;55.720;37.606;2023-07-31T08:24:23;99018.53;;;25.16;35.63
74561;BME280;62979;55.720;37.606;2023-07-31T08:26:50;99014.16;;;25.15;36.01
74561;BME280;62979;55.720;37.606;2023-07-31T08:29:17;99016.53;;;25.28;34.80
74561;BME280;62979;55.720;37.606;2023-07-31T08:31:44;99009.34;;;25.29;34.54
74561;BME280;62979;55.720;37.606;2023-07-31T08:34:12;99009.59;;;25.35;34.39
74561;BME280;62979;55.720;37.606;2023-07-31T08:36:39;99022.41;;;25.41;34.76
74561;BME280;62979;55.720;37.606;2023-07-31T08:39:06;99019.94;;;25.48;34.49
74561;BME280;62979;55.720;37.606;2023-07-31T08:41:37;99023.19;;;25.52;34.56
74561;BME280;62979;55.720;37.606;2023-07-31T08:44:04;99020.25;;;25.45;34.43
74561;BME280;62979;55.720;37.606;2023-07-31T08:46:33;99020.69;;;25.68;34.62
74561;BME280;62979;55.720;37.606;2023-07-31T08:49:04;99018.63;;;25.80;34.02
74561;BME280;62979;55.720;37.606;2023-07-31T08:51:34;99017.16;;;25.95;35.29
74561;BME280;62979;55.720;37.606;2023-07-31T08:54:01;99018.44;;;26.09;36.30
74561;BME280;62979;55.720;37.606;2023-07-31T08:56:30;99016.22;;;26.22;34.72
74561;BME280;62979;55.720;37.606;2023-07-31T08:59:01;99017.38;;;26.56;34.39
74561;BME280;62979;55.720;37.606;2023-07-31T09:01:30;99014.84;;;26.80;34.47
74561;BME280;62979;55.720;37.606;2023-07-31T09:04:04;99026.69;;;26.69;32.60
74561;BME280;62979;55.720;37.606;2023-07-31T09:06:33;99026.94;;;26.40;32.64
74561;BME280;62979;55.720;37.606;2023-07-31T09:09:01;99028.09;;;26.20;32.84
74561;BME280;62979;55.720;37.606;2023-07-31T09:11:28;99016.16;;;26.14;34.12
74561;BME280;62979;55.720;37.606;2023-07-31T09:13:57;99011.31;;;26.18;34.19
74561;BME280;62979;55.720;37.606;2023-07-31T09:16:27;99010.50;;;26.17;32.54
74561;BME280;62979;55.720;37.606;2023-07-31T09:18:57;99011.97;;;26.12;33.34
74561;BME280;62979;55.720;37.606;2023-07-31T09:21:27;99012.03;;;26.02;33.68
74561;BME280;62979;55.720;37.606;2023-07-31T09:23:56;99018.84;;;25.96;33.85
74561;BME280;62979;55.720;37.606;2023-07-31T09:26:31;99013.84;;;26.01;32.83
74561;BME280;62979;55.720;37.606;2023-07-31T09:28:59;99006.13;;;25.98;33.59
74561;BME280;62979;55.720;37.606;2023-07-31T09:31:38;99013.47;;;26.32;33.66
74561;BME280;62979;55.720;37.606;2023-07-31T09:34:06;99010.38;;;26.45;33.54
74561;BME280;62979;55.720;37.606;2023-07-31T09:36:39;99018.44;;;26.63;33.03
74561;BME280;62979;55.720;37.606;2023-07-31T09:39:10;99015.94;;;26.69;32.75
74561;BME280;62979;55.720;37.606;2023-07-31T09:41:39;99024.06;;;26.78;32.66
74561;BME280;62979;55.720;37.606;2023-07-31T09:44:07;99014.56;;;26.92;32.59
74561;BME280;62979;55.720;37.606;2023-07-31T09:46:35;99018.88;;;27.10;31.35
74561;BME280;62979;55.720;37.606;2023-07-31T09:49:07;99012.53;;;27.46;32.27
74561;BME280;62979;55.720;37.606;2023-07-31T09:51:35;99010.28;;;27.84;31.93
74561;BME280;62979;55.720;37.606;2023-07-31T09:54:10;99014.03;;;28.07;30.24
74561;BME280;62979;55.720;37.606;2023-07-31T09:56:41;99018.59;;;28.31;30.26
74561;BME280;62979;55.720;37.606;2023-07-31T09:59:11;99016.06;;;28.63;29.11
74561;BME280;62979;55.720;37.606;2023-07-31T10:01:40;99019.69;;;28.94;28.20
74561;BME280;62979;55.720;37.606;2023-07-31T10:04:08;99013.63;;;29.17;28.71
74561;BME280;62979;55.720;37.606;2023-07-31T10:06:37;99003.50;;;29.19;27.96
74561;BME280;62979;55.720;37.606;2023-07-31T10:09:06;99002.56;;;28.87;28.50
74561;BME280;62979;55.720;37.606;2023-07-31T10:11:38;99015.38;;;28.77;28.76
74561;BME280;62979;55.720;37.606;2023-07-31T10:14:10;99017.72;;;28.72;29.28
74561;BME280;62979;55.720;37.606;2023-07-31T10:16:38;99017.00;;;28.94;28.41
74561;BME280;62979;55.720;37.606;2023-07-31T10:19:06;99015.44;;;29.25;28.46
74561;BME280;62979;55.720;37.606;2023-07-31T10:21:35;99010.41;;;29.61;27.88
74561;BME280;62979;55.720;37.606;2023-07-31T10:24:04;99016.47;;;30.17;27.51
74561;BME280;62979;55.720;37.606;2023-07-31T10:26:32;99013.97;;;30.91;26.75
74561;BME280;62979;55.720;37.606;2023-07-31T10:29:01;99018.25;;;31.30;25.51
74561;BME280;62979;55.720;37.606;2023-07-31T10:31:29;99017.75;;;31.71;25.37
74561;BME280;62979;55.720;37.606;2023-07-31T10:33:57;99004.97;;;31.95;25.09
74561;BME280;62979;55.720;37.606;2023-07-31T10:36:26;99002.13;;;32.03;24.00
74561;BME280;62979;55.720;37.606;2023-07-31T10:38:55;99011.38;;;32.37;23.96
74561;BME280;62979;55.720;37.606;2023-07-31T10:41:28;99009.94;;;32.62;23.75
74561;BME280;62979;55.720;37.606;2023-07-31T10:43:57;99014.28;;;32.85;24.36
74561;BME280;62979;55.720;37.606;2023-07-31T10:46:27;99001.63;;;32.92;24.15
74561;BME280;62979;55.720;37.606;2023-07-31T10:48:58;99013.09;;;32.45;23.80
74561;BME280;62979;55.720;37.606;2023-07-31T10:51:32;99020.91;;;31.75;24.89
74561;BME280;62979;55.720;37.606;2023-07-31T10:54:11;99009.16;;;31.17;25.63
74561;BME280;62979;55.720;37.606;2023-07-31T10:56:39;99013.56;;;30.80;26.87
74561;BME280;62979;55.720;37.606;2023-07-31T10:59:06;99013.41;;;30.20;27.30
74561;BME280;62979;55.720;37.606;2023-07-31T11:01:54;99016.03;;;29.82;27.83
74561;BME280;62979;55.720;37.606;2023-07-31T11:04:24;99017.78;;;29.75;28.40
74561;BME280;62979;55.720;37.606;2023-07-31T11:06:56;99011.75;;;29.57;28.10
74561;BME280;62979;55.720;37.606;2023-07-31T11:09:27;99018.47;;;29.30;28.43
74561;BME280;62979;55.720;37.606;2023-07-31T11:11:56;99018.69;;;29.03;28.15
74561;BME280;62979;55.720;37.606;2023-07-31T11:14:23;99017.03;;;28.86;28.40
74561;BME280;62979;55.720;37.606;2023-07-31T11:16:50;99019.78;;;28.62;28.46
74561;BME280;62979;55.720;37.606;2023-07-31T11:19:22;99007.78;;;28.89;28.38
74561;BME280;62979;55.720;37.606;2023-07-31T11:21:51;99000.41;;;30.01;28.29
74561;BME280;62979;55.720;37.606;2023-07-31T11:24:19;99011.19;;;31.29;26.36
74561;BME280;62979;55.720;37.606;2023-07-31T11:26:50;99017.03;;;32.42;23.87
74561;BME280;62979;55.720;37.606;2023-07-31T11:29:18;99008.44;;;32.53;23.36
74561;BME280;62979;55.720;37.606;2023-07-31T11:31:47;99013.38;;;32.07;24.76
74561;BME280;62979;55.720;37.606;2023-07-31T11:34:14;99001.38;;;32.59;24.37
74561;BME280;62979;55.720;37.606;2023-07-31T11:36:53;99010.03;;;33.45;22.49
74561;BME280;62979;55.720;37.606;2023-07-31T11:39:21;99002.34;;;33.49;23.02
74561;BME280;62979;55.720;37.606;2023-07-31T11:41:48;98999.75;;;33.28;23.48
74561;BME280;62979;55.720;37.606;2023-07-31T11:44:15;99008.56;;;33.43;23.16
74561;BME280;62979;55.720;37.606;2023-07-31T11:46:42;99017.94;;;34.02;22.21
74561;BME280;62979;55.720;37.606;2023-07-31T11:49:09;99013.06;;;34.65;21.62
74561;BME280;62979;55.720;37.606;2023-07-31T11:51:36;99014.50;;;34.41;21.52
74561;BME280;62979;55.720;37.606;2023-07-31T11:54:05;99005.06;;;34.30;21.59
74561;BME280;62979;55.720;37.606;2023-07-31T11:56:32;99007.09;;;33.95;22.40
74561;BME280;62979;55.720;37.606;2023-07-31T11:59:00;99010.34;;;33.22;22.77
74561;BME280;62979;55.720;37.606;2023-07-31T12:01:29;99006.75;;;32.52;23.75
74561;BME280;62979;55.720;37.606;2023-07-31T12:03:58;98999.94;;;31.77;24.34
74561;BME280;62979;55.720;37.606;2023-07-31T12:06:32;99008.56;;;31.21;25.20
74561;BME280;62979;55.720;37.606;2023-07-31T12:09:02;99006.59;;;30.33;25.95
74561;BME280;62979;55.720;37.606;2023-07-31T12:11:31;99005.09;;;30.07;26.27
74561;BME280;62979;55.720;37.606;2023-07-31T12:14:19;99013.00;;;29.77;27.05
74561;BME280;62979;55.720;37.606;2023-07-31T12:16:47;99018.03;;;29.49;28.32
74561;BME280;62979;55.720;37.606;2023-07-31T12:19:14;99010.47;;;29.44;28.72
74561;BME280;62979;55.720;37.606;2023-07-31T12:21:41;99024.00;;;29.28;29.27
74561;BME280;62979;55.720;37.606;2023-07-31T12:24:09;99018.81;;;29.18;30.03
74561;BME280;62979;55.720;37.606;2023-07-31T12:26:36;99014.97;;;29.13;30.12
74561;BME280;62979;55.720;37.606;2023-07-31T12:29:07;99014.00;;;28.97;30.51
74561;BME280;62979;55.720;37.606;2023-07-31T12:31:34;99020.25;;;28.65;30.46
74561;BME280;62979;55.720;37.606;2023-07-31T12:34:02;99025.16;;;28.45;30.69
74561;BME280;62979;55.720;37.606;2023-07-31T12:36:30;99035.41;;;28.50;31.21
74561;BME280;62979;55.720;37.606;2023-07-31T12:39:00;99027.97;;;28.35;30.88
74561;BME280;62979;55.720;37.606;2023-07-31T12:41:29;99029.34;;;28.31;31.45
74561;BME280;62979;55.720;37.606;2023-07-31T12:43:56;99031.34;;;28.37;30.80
74561;BME280;62979;55.720;37.606;2023-07-31T12:46:23;99028.53;;;28.47;30.82
74561;BME280;62979;55.720;37.606;2023-07-31T12:48:50;99020.81;;;28.61;31.08
74561;BME280;62979;55.720;37.606;2023-07-31T12:51:17;99030.84;;;28.75;30.85
74561;BME280;62979;55.720;37.606;2023-07-31T12:53:44;99024.97;;;28.55;30.90
74561;BME280;62979;55.720;37.606;2023-07-31T12:56:10;99031.00;;;28.81;30.86